Time;durP1;ratioP1;P1;durP2;ratioP2;P2;SDS_P1;SDS_P2;PMS_P1;PMS_P2;Temp;Humidity;BMP_temperature;BMP_pressure;BME280_temperature;BME280_humidity;BME280_pressure;Samples;Min_cycle;Max_cycle;Signal;HPM_P1;HPM_P2
2022/04/13 00:00:38;;;;;;;4.07;1.40;;;;;;;11.27;46.72;99408.31;4954955;29;20243;-90
2022/04/13 00:03:04;;;;;;;4.57;1.50;;;;;;;11.32;46.46;99405.47;4954946;29;20507;-91
2022/04/13 00:05:30;;;;;;;2.77;1.13;;;;;;;11.34;47.03;99406.22;4955817;29;20227;-90
2022/04/13 00:07:55;;;;;;;2.17;1.10;;;;;;;11.34;46.89;99399.22;4954925;29;20189;-90
2022/04/13 00:10:21;;;;;;;4.03;1.80;;;;;;;11.32;46.63;99400.22;4954686;29;20550;-91
2022/04/13 00:12:46;;;;;;;3.20;1.40;;;;;;;11.31;46.10;99402.00;4938027;29;20187;-90
2022/04/13 00:15:12;;;;;;;6.27;1.17;;;;;;;11.28;46.11;99398.66;4937938;29;20628;-91
2022/04/13 00:17:37;;;;;;;2.63;1.17;;;;;;;11.30;46.43;99395.03;4954933;29;20196;-90
2022/04/13 00:20:06;;;;;;;2.20;1.53;;;;;;;11.30;46.80;99397.66;4954854;29;20631;-90
2022/04/13 00:22:32;;;;;;;2.87;0.80;;;;;;;11.25;45.88;99397.03;4938059;29;20192;-91
2022/04/13 00:24:58;;;;;;;1.33;0.70;;;;;;;11.28;45.75;99394.25;4954733;29;20197;-91
2022/04/13 00:27:23;;;;;;;4.73;1.40;;;;;;;11.29;45.71;99390.72;4955027;29;20204;-91
2022/04/13 00:29:49;;;;;;;3.97;1.50;;;;;;;11.29;46.02;99393.34;4957164;28;20641;-91
2022/04/13 00:32:14;;;;;;;1.97;0.93;;;;;;;11.25;45.53;99388.31;4958516;29;20177;-91
2022/04/13 00:34:41;;;;;;;5.70;1.80;;;;;;;11.24;45.60;99378.78;4958636;29;20255;-91
2022/04/13 00:37:06;;;;;;;5.60;1.47;;;;;;;11.22;45.18;99388.47;4941798;29;20183;-91
2022/04/13 00:39:31;;;;;;;2.30;1.27;;;;;;;11.24;45.33;99390.09;4958616;29;20185;-92
2022/04/13 00:42:04;;;;;;;2.80;1.43;;;;;;;11.24;44.15;99381.41;4958166;28;20283;-90
2022/04/13 00:44:29;;;;;;;3.40;1.43;;;;;;;11.21;45.05;99382.41;4958088;29;20212;-91
2022/04/13 00:46:56;;;;;;;4.10;1.50;;;;;;;11.22;45.33;99383.22;4958124;29;20181;-91
2022/04/13 00:49:22;;;;;;;6.80;2.17;;;;;;;11.21;45.27;99382.41;4958095;29;20215;-92
2022/04/13 00:51:49;;;;;;;8.63;2.77;;;;;;;11.11;45.54;99381.16;4958005;29;20185;-91
2022/04/13 00:54:17;;;;;;;10.27;1.77;;;;;;;11.14;45.66;99378.38;4941967;29;20177;-90
2022/04/13 00:56:45;;;;;;;6.13;1.30;;;;;;;11.16;45.76;99376.53;4958256;29;20295;-92
2022/04/13 00:59:13;;;;;;;4.20;1.63;;;;;;;11.14;46.18;99377.53;4957836;29;20243;-91
2022/04/13 01:01:42;;;;;;;2.03;1.10;;;;;;;10.98;45.45;99382.69;4958135;29;20181;-90
2022/04/13 01:04:11;;;;;;;2.97;1.67;;;;;;;10.89;46.43;99375.28;4957679;29;20338;-91
2022/04/13 01:06:38;;;;;;;3.83;1.47;;;;;;;10.86;46.40;99383.31;4957647;29;20228;-91
2022/04/13 01:09:04;;;;;;;1.97;1.10;;;;;;;10.95;46.06;99380.25;4940803;29;20656;-91
2022/04/13 01:11:29;;;;;;;3.50;1.10;;;;;;;10.93;46.23;99382.06;4958089;29;20181;-90
2022/04/13 01:13:56;;;;;;;3.20;1.80;;;;;;;10.95;47.04;99382.88;4940739;29;20201;-90
2022/04/13 01:16:23;;;;;;;1.50;0.80;;;;;;;10.93;46.95;99369.81;4940805;29;20549;-91
2022/04/13 01:18:49;;;;;;;1.80;1.10;;;;;;;10.90;47.62;99377.00;4940736;29;20597;-91
2022/04/13 01:21:17;;;;;;;2.70;1.47;;;;;;;10.90;47.57;99367.34;4940716;29;20256;-91
2022/04/13 01:23:42;;;;;;;4.67;2.07;;;;;;;10.85;47.46;99371.13;4957984;29;20200;-90
2022/04/13 01:26:10;;;;;;;2.40;1.27;;;;;;;10.82;47.33;99368.66;4957643;29;20660;-91
2022/04/13 01:28:36;;;;;;;1.17;0.77;;;;;;;10.87;47.55;99367.53;4957212;29;20177;-91
2022/04/13 01:31:02;;;;;;;2.67;1.23;;;;;;;10.85;47.83;99364.09;4940438;29;20229;-91
2022/04/13 01:33:29;;;;;;;3.27;1.57;;;;;;;10.83;47.56;99355.47;4957428;29;20287;-90
2022/04/13 01:36:00;;;;;;;2.40;1.40;;;;;;;10.82;47.40;99360.81;4940286;29;20185;-91
2022/04/13 01:38:28;;;;;;;3.30;0.90;;;;;;;10.76;47.71;99364.56;4940431;29;20236;-91
2022/04/13 01:40:55;;;;;;;3.57;1.10;;;;;;;10.80;47.35;99367.88;4955787;28;20207;-91
2022/04/13 01:43:20;;;;;;;2.20;1.17;;;;;;;10.89;47.56;99368.28;4957074;29;20189;-91
2022/04/13 01:45:46;;;;;;;11.90;2.73;;;;;;;10.88;48.79;99370.97;4940121;29;20196;-91
2022/04/13 01:48:11;;;;;;;2.57;1.30;;;;;;;10.92;48.16;99369.91;4957097;29;20181;-91
2022/04/13 01:50:36;;;;;;;1.83;0.90;;;;;;;10.96;47.57;99367.03;4957256;29;20174;-91
2022/04/13 01:53:02;;;;;;;4.10;1.83;;;;;;;11.01;46.79;99358.94;4940242;29;20741;-91
2022/04/13 01:55:27;;;;;;;1.43;0.80;;;;;;;10.99;46.78;99351.16;4957036;29;20598;-90
2022/04/13 01:57:53;;;;;;;1.83;1.20;;;;;;;10.88;46.73;99357.84;4940041;29;20637;-91
2022/04/13 02:00:18;;;;;;;2.53;1.43;;;;;;;10.78;47.10;99356.63;4956873;29;20181;-91
2022/04/13 02:02:44;;;;;;;3.50;1.60;;;;;;;10.75;47.51;99362.00;4957021;29;20188;-90
2022/04/13 02:05:10;;;;;;;2.77;0.93;;;;;;;10.74;47.33;99360.34;4956696;29;20208;-91
2022/04/13 02:07:35;;;;;;;3.07;1.83;;;;;;;10.66;48.29;99360.72;4956643;29;20173;-92
2022/04/13 02:10:01;;;;;;;2.13;1.20;;;;;;;10.69;48.48;99360.53;4939894;29;20193;-91
2022/04/13 02:12:27;;;;;;;3.07;1.53;;;;;;;10.68;49.03;99363.25;4939774;29;20255;-91
2022/04/13 02:14:53;;;;;;;2.00;1.10;;;;;;;10.66;49.40;99379.06;4939636;29;20177;-91
2022/04/13 02:17:19;;;;;;;3.80;2.17;;;;;;;10.67;50.17;99365.03;4939728;29;20185;-91
2022/04/13 02:19:45;;;;;;;5.70;1.60;;;;;;;10.72;49.77;99357.78;4939673;29;20180;-91
2022/04/13 02:22:11;;;;;;;3.97;2.10;;;;;;;10.73;49.65;99363.88;4956571;29;20560;-91
2022/04/13 02:24:39;;;;;;;3.37;1.63;;;;;;;10.67;49.88;99364.16;4956301;29;20219;-92
2022/04/13 02:27:07;;;;;;;3.67;1.47;;;;;;;10.64;49.72;99359.91;4939348;29;20186;-91
2022/04/13 02:29:34;;;;;;;4.03;1.47;;;;;;;10.65;49.53;99361.63;4956212;29;20584;-90
2022/04/13 02:32:00;;;;;;;1.67;1.27;;;;;;;10.63;49.47;99362.63;4956173;29;20181;-91
2022/04/13 02:34:25;;;;;;;8.43;2.17;;;;;;;10.58;49.28;99369.88;4956706;29;20243;-91
2022/04/13 02:36:50;;;;;;;3.17;1.53;;;;;;;10.49;50.05;99373.78;4939564;29;20196;-91
2022/04/13 02:39:16;;;;;;;4.00;1.60;;;;;;;10.56;50.20;99371.72;4956160;29;20184;-91
2022/04/13 02:41:41;;;;;;;3.83;1.70;;;;;;;10.48;50.22;99379.97;4956009;29;20286;-91
2022/04/13 02:44:07;;;;;;;2.17;1.30;;;;;;;10.44;50.23;99374.00;4955961;29;20208;-93
2022/04/13 02:46:32;;;;;;;5.23;1.90;;;;;;;10.43;50.12;99376.69;4939125;29;20232;-93
2022/04/13 02:48:57;;;;;;;4.47;1.50;;;;;;;10.38;50.08;99376.06;4939154;29;20181;-93
2022/04/13 02:51:23;;;;;;;6.73;2.10;;;;;;;10.36;50.68;99376.16;4955579;28;20200;-91
2022/04/13 02:53:48;;;;;;;8.80;2.00;;;;;;;10.50;50.30;99380.72;4938964;29;20177;-91
2022/04/13 02:56:15;;;;;;;2.37;1.47;;;;;;;10.52;49.98;99381.50;4955814;29;20642;-91
2022/04/13 02:58:40;;;;;;;3.13;1.53;;;;;;;10.49;49.47;99382.50;4956051;29;20185;-91
2022/04/13 03:01:06;;;;;;;2.40;1.27;;;;;;;10.29;50.46;99382.59;4956359;29;20235;-91
2022/04/13 03:03:32;;;;;;;5.17;1.63;;;;;;;10.02;51.00;99381.25;4938842;29;20203;-92
2022/04/13 03:05:58;;;;;;;1.77;1.10;;;;;;;10.17;50.48;99383.16;4955629;29;20221;-91
2022/04/13 03:08:23;;;;;;;5.43;1.53;;;;;;;10.15;50.62;99374.53;4955873;29;20191;-91
2022/04/13 03:10:49;;;;;;;2.47;1.33;;;;;;;10.09;50.71;99382.66;4955995;29;20177;-91
2022/04/13 03:13:14;;;;;;;2.87;1.33;;;;;;;9.81;51.66;99371.75;4939102;29;20618;-91
2022/04/13 03:15:40;;;;;;;3.97;1.60;;;;;;;9.63;53.34;99385.69;4938742;29;20236;-90
2022/04/13 03:18:05;;;;;;;6.47;2.30;;;;;;;9.60;53.27;99380.56;4955410;29;20614;-91
2022/04/13 03:20:32;;;;;;;4.73;1.87;;;;;;;9.47;53.66;99385.50;4955570;29;20184;-91
2022/04/13 03:22:57;;;;;;;3.27;1.77;;;;;;;9.46;54.08;99378.56;4938519;29;20538;-91
2022/04/13 03:25:23;;;;;;;7.07;1.70;;;;;;;9.53;54.37;99387.00;4955398;29;20205;-90
2022/04/13 03:27:48;;;;;;;2.03;1.37;;;;;;;9.66;53.41;99385.53;4955339;29;20180;-90
2022/04/13 03:30:16;;;;;;;10.07;2.07;;;;;;;9.66;53.14;99388.16;4955426;29;20173;-91
2022/04/13 03:32:42;;;;;;;1.97;1.27;;;;;;;9.73;53.39;99382.56;4955793;29;20614;-91
2022/04/13 03:35:12;;;;;;;8.63;1.97;;;;;;;9.81;52.88;99392.69;4955222;29;20195;-91
2022/04/13 03:37:41;;;;;;;6.20;2.13;;;;;;;9.76;53.58;99398.16;4955460;29;20169;-90
2022/04/13 03:40:09;;;;;;;3.80;1.93;;;;;;;9.75;53.62;99387.72;4938283;29;20632;-91
2022/04/13 03:42:39;;;;;;;6.90;2.73;;;;;;;9.80;53.43;99397.06;4955430;29;20173;-91
2022/04/13 03:45:09;;;;;;;3.93;1.67;;;;;;;9.82;52.26;99399.66;4955132;29;20218;-90
2022/04/13 03:47:34;;;;;;;3.97;2.03;;;;;;;9.86;51.77;99398.56;4955107;29;20522;-91
2022/04/13 03:50:00;;;;;;;2.37;1.17;;;;;;;9.87;52.17;99400.28;4955158;29;20187;-91
2022/04/13 03:52:26;;;;;;;5.20;1.90;;;;;;;9.74;53.12;99404.38;4955092;29;20258;-91
2022/04/13 03:54:52;;;;;;;9.13;1.60;;;;;;;9.65;53.67;99413.47;4955102;29;20578;-91
2022/04/13 03:57:17;;;;;;;3.80;1.47;;;;;;;9.75;53.10;99416.53;4955918;29;20195;-92
2022/04/13 03:59:43;;;;;;;1.50;1.20;;;;;;;9.80;52.64;99422.44;4955307;29;20205;-91
2022/04/13 04:02:08;;;;;;;2.60;1.03;;;;;;;9.65;53.00;99420.47;4955060;29;20191;-90
2022/04/13 04:04:34;;;;;;;6.73;1.63;;;;;;;9.70;52.58;99421.13;4940299;29;20207;-90
2022/04/13 04:06:59;;;;;;;6.87;3.03;;;;;;;9.76;52.85;99423.47;4959203;29;20241;-90
2022/04/13 04:09:25;;;;;;;4.20;1.77;;;;;;;9.76;52.73;99426.94;4942106;29;20280;-90
2022/04/13 04:11:50;;;;;;;5.00;2.63;;;;;;;9.71;52.70;99425.44;4958865;29;20223;-91
2022/04/13 04:14:15;;;;;;;3.37;1.60;;;;;;;9.70;53.67;99434.19;4958989;29;20271;-91
2022/04/13 04:16:41;;;;;;;4.10;2.00;;;;;;;9.72;54.17;99432.38;4959520;29;20266;-90
2022/04/13 04:19:06;;;;;;;5.07;2.10;;;;;;;9.72;53.21;99437.63;4959280;29;20202;-91
2022/04/13 04:21:32;;;;;;;3.77;1.67;;;;;;;9.63;54.30;99445.88;4958908;29;20183;-91
2022/04/13 04:23:57;;;;;;;5.30;1.87;;;;;;;9.51;55.00;99449.03;4958561;29;20204;-90
2022/04/13 04:26:23;;;;;;;7.00;2.17;;;;;;;9.64;54.90;99447.56;4958402;29;20601;-90
2022/04/13 04:28:48;;;;;;;3.50;1.40;;;;;;;9.77;54.50;99446.13;4958460;29;20600;-90
2022/04/13 04:31:19;;;;;;;3.87;1.47;;;;;;;9.94;54.08;99447.97;4958193;29;20209;-90
2022/04/13 04:33:45;;;;;;;4.30;2.20;;;;;;;10.05;53.87;99443.97;4958821;29;20160;-90
2022/04/13 04:36:10;;;;;;;6.47;2.47;;;;;;;10.16;53.95;99439.13;4958354;29;20534;-91
2022/04/13 04:38:37;;;;;;;5.67;2.73;;;;;;;10.31;54.58;99441.03;4958571;29;20268;-89
2022/04/13 04:41:03;;;;;;;6.40;2.00;;;;;;;10.68;53.31;99436.66;4941271;29;20197;-90
2022/04/13 04:43:29;;;;;;;4.60;1.70;;;;;;;10.70;52.50;99438.28;4941273;29;20177;-90
2022/04/13 04:45:54;;;;;;;5.53;2.57;;;;;;;10.89;52.95;99443.47;4958197;29;20181;-91
2022/04/13 04:48:20;;;;;;;6.13;2.47;;;;;;;11.16;51.29;99442.13;4941276;29;20196;-91
2022/04/13 04:50:45;;;;;;;4.77;3.10;;;;;;;11.75;50.68;99446.09;4941272;29;20192;-91
2022/04/13 04:53:11;;;;;;;7.13;2.90;;;;;;;11.98;48.81;99448.38;4941188;29;20185;-91
2022/04/13 04:55:36;;;;;;;8.77;3.40;;;;;;;12.25;48.75;99449.53;4957996;29;20187;-90
2022/04/13 04:58:03;;;;;;;7.47;4.03;;;;;;;12.57;47.29;99448.59;4957937;29;20220;-91
2022/04/13 05:00:29;;;;;;;6.17;2.90;;;;;;;12.76;47.42;99454.50;4941172;29;20334;-91
2022/04/13 05:02:55;;;;;;;4.53;2.33;;;;;;;12.86;45.84;99454.88;4957913;29;20621;-90
2022/04/13 05:05:21;;;;;;;5.57;2.30;;;;;;;12.75;46.26;99459.88;4940997;29;20209;-91
2022/04/13 05:07:47;;;;;;;13.93;3.20;;;;;;;12.74;47.45;99453.75;4958054;29;20201;-91
2022/04/13 05:10:13;;;;;;;7.17;2.67;;;;;;;13.21;47.61;99458.97;4940906;29;20630;-92
2022/04/13 05:12:47;;;;;;;7.80;3.10;;;;;;;13.61;46.05;99454.84;4957946;29;20182;-91
2022/04/13 05:15:13;;;;;;;11.53;4.40;;;;;;;13.49;44.85;99455.59;4940724;29;20540;-91
2022/04/13 05:17:39;;;;;;;10.90;5.50;;;;;;;13.36;46.60;99459.88;4957656;29;20186;-91
2022/04/13 05:20:06;;;;;;;12.83;5.37;;;;;;;13.49;45.86;99450.31;4957680;29;20191;-92
2022/04/13 05:22:31;;;;;;;17.97;5.03;;;;;;;13.55;45.66;99457.84;4957551;29;20583;-90
2022/04/13 05:25:04;;;;;;;9.23;4.53;;;;;;;13.55;45.81;99460.47;4940671;29;20206;-91
2022/04/13 05:27:30;;;;;;;19.50;5.17;;;;;;;13.55;45.71;99457.84;4941332;29;20290;-91
2022/04/13 05:29:56;;;;;;;11.83;5.13;;;;;;;13.45;46.19;99467.22;4940449;29;20184;-91
2022/04/13 05:32:21;;;;;;;10.10;3.87;;;;;;;13.64;46.49;99469.59;4958039;29;20219;-91
2022/04/13 05:34:46;;;;;;;13.13;4.77;;;;;;;13.82;46.00;99458.81;4957332;29;20278;-91
2022/04/13 05:37:12;;;;;;;3.53;2.00;;;;;;;13.94;45.37;99465.97;4957936;29;20180;-91
2022/04/13 05:39:38;;;;;;;3.07;1.80;;;;;;;14.02;45.64;99460.22;4957196;29;20691;-92
2022/04/13 05:42:04;;;;;;;1.90;0.90;;;;;;;14.16;42.83;99466.34;4957315;28;20253;-92
2022/04/13 05:44:29;;;;;;;1.50;0.87;;;;;;;14.08;41.74;99468.63;4957158;29;20212;-92
2022/04/13 05:46:55;;;;;;;3.20;1.60;;;;;;;14.10;41.23;99469.38;4957124;29;20189;-91
2022/04/13 05:49:20;;;;;;;3.43;1.63;;;;;;;13.99;41.61;99466.53;4957094;29;20599;-89
2022/04/13 05:51:45;;;;;;;2.63;1.13;;;;;;;14.14;41.78;99467.41;4956937;29;20173;-90
2022/04/13 05:54:11;;;;;;;2.53;1.17;;;;;;;14.32;41.52;99463.66;4956954;29;20645;-92
2022/04/13 05:56:36;;;;;;;1.70;0.87;;;;;;;14.39;40.17;99472.00;4940333;29;20700;-93
2022/04/13 05:59:02;;;;;;;1.43;1.00;;;;;;;14.38;41.25;99468.56;4940363;29;20275;-92
2022/04/13 06:01:27;;;;;;;3.27;1.40;;;;;;;14.44;40.97;99477.88;4940311;29;20184;-92
2022/04/13 06:03:53;;;;;;;2.67;1.10;;;;;;;14.43;40.96;99473.53;4939985;29;20205;-92
2022/04/13 06:06:18;;;;;;;1.97;1.20;;;;;;;14.47;40.95;99472.38;4956821;29;20188;-93
2022/04/13 06:08:44;;;;;;;2.17;1.57;;;;;;;14.49;41.70;99475.78;4940007;29;20185;-93
2022/04/13 06:11:09;;;;;;;3.03;1.67;;;;;;;14.62;41.58;99472.25;4956837;29;20217;-90
2022/04/13 06:13:36;;;;;;;3.03;1.63;;;;;;;14.70;40.68;99477.06;4956720;29;20184;-93
2022/04/13 06:16:23;;;;;;;6.57;2.13;;;;;;;14.90;39.76;99481.03;4939781;29;20558;-92
2022/04/13 06:18:48;;;;;;;3.10;1.60;;;;;;;14.85;38.81;99472.59;4940111;29;20188;-90
2022/04/13 06:21:14;;;;;;;2.80;1.37;;;;;;;14.93;39.09;99476.44;4956872;29;20181;-91
2022/04/13 06:23:39;;;;;;;3.10;1.63;;;;;;;15.20;38.20;99473.75;4956541;29;20181;-92
2022/04/13 06:26:05;;;;;;;3.60;1.80;;;;;;;15.49;37.21;99472.69;4956239;28;20213;-91
2022/04/13 06:28:30;;;;;;;2.63;1.33;;;;;;;15.58;38.20;99471.25;4939549;29;20622;-91
2022/04/13 06:30:56;;;;;;;4.00;1.40;;;;;;;15.70;37.91;99468.59;4956851;29;20236;-92
2022/04/13 06:33:21;;;;;;;2.83;1.80;;;;;;;15.94;38.91;99468.72;4956677;29;20310;-91
2022/04/13 06:35:47;;;;;;;2.67;1.20;;;;;;;16.09;37.42;99467.66;4956083;29;20182;-90
2022/04/13 06:38:12;;;;;;;4.17;1.73;;;;;;;16.39;36.51;99462.88;4939330;29;20201;-90
2022/04/13 06:40:38;;;;;;;3.23;1.70;;;;;;;16.80;35.94;99473.13;4939345;29;20661;-93
2022/04/13 06:43:03;;;;;;;3.87;1.67;;;;;;;16.79;35.24;99468.81;4939361;29;20189;-91
2022/04/13 06:45:29;;;;;;;3.73;2.30;;;;;;;17.00;36.67;99464.59;4939301;29;20202;-91
2022/04/13 06:47:54;;;;;;;3.37;1.70;;;;;;;17.16;35.95;99473.09;4956186;29;20198;-92
2022/04/13 06:50:19;;;;;;;4.57;1.50;;;;;;;17.33;36.13;99477.13;4939170;29;20278;-92
2022/04/13 06:52:45;;;;;;;3.37;1.37;;;;;;;17.64;35.67;99471.25;4939304;29;20203;-92
2022/04/13 06:55:11;;;;;;;2.70;1.30;;;;;;;17.95;36.90;99468.91;4939207;29;20201;-93
2022/04/13 06:57:38;;;;;;;2.03;1.00;;;;;;;18.15;35.23;99469.06;4955865;29;20179;-92
2022/04/13 07:00:13;;;;;;;3.17;1.57;;;;;;;18.34;33.72;99471.09;4956251;29;20181;-93
2022/04/13 07:02:40;;;;;;;2.60;1.47;;;;;;;18.65;35.46;99474.84;4956159;29;20187;-93
2022/04/13 07:05:11;;;;;;;3.10;1.20;;;;;;;19.05;34.50;99473.28;4939084;29;20274;-92
2022/04/13 07:07:37;;;;;;;3.70;1.10;;;;;;;19.39;34.59;99466.09;4939026;29;20196;-90
2022/04/13 07:10:03;;;;;;;1.87;1.13;;;;;;;19.45;33.01;99476.19;4955848;29;20610;-91
2022/04/13 07:12:35;;;;;;;2.90;1.60;;;;;;;19.49;33.67;99472.31;4939041;29;20195;-93
2022/04/13 07:15:01;;;;;;;4.47;2.23;;;;;;;19.73;31.37;99464.09;4939027;29;20196;-94
2022/04/13 07:17:27;;;;;;;5.13;2.50;;;;;;;19.66;32.23;99474.38;4939352;29;20261;-93
2022/04/13 07:19:52;;;;;;;3.00;1.40;;;;;;;19.66;30.89;99469.06;4939636;29;20602;-94
2022/04/13 07:22:18;;;;;;;3.03;1.33;;;;;;;19.60;32.70;99480.25;4939051;29;20652;-93
2022/04/13 07:24:43;;;;;;;3.70;1.43;;;;;;;19.51;33.06;99483.66;4938774;29;20217;-91
2022/04/13 07:27:09;;;;;;;5.20;1.83;;;;;;;19.40;32.40;99483.69;4938951;29;20182;-94
2022/04/13 07:29:34;;;;;;;3.90;1.63;;;;;;;19.39;33.05;99477.53;4939822;29;20251;-93
2022/04/13 07:32:02;;;;;;;3.73;1.50;;;;;;;19.39;32.88;99484.69;4939739;29;20552;-95
2022/04/13 07:34:28;;;;;;;3.67;1.33;;;;;;;19.45;33.43;99482.34;4938870;29;20274;-93
2022/04/13 07:36:53;;;;;;;3.90;1.50;;;;;;;19.48;31.97;99482.09;4938853;29;20178;-94
2022/04/13 07:39:19;;;;;;;4.63;1.67;;;;;;;19.49;31.93;99493.59;4940090;29;20551;-94
2022/04/13 07:41:45;;;;;;;2.20;1.03;;;;;;;19.49;32.72;99493.59;4939000;29;20251;-93
2022/04/13 07:44:11;;;;;;;4.10;1.33;;;;;;;19.43;32.91;99492.28;4956247;29;20204;-91
2022/04/13 07:46:37;;;;;;;4.60;1.40;;;;;;;19.32;32.96;99492.28;4939064;29;20641;-94
2022/04/13 07:49:05;;;;;;;2.70;1.23;;;;;;;19.40;31.45;99481.03;4939328;29;20278;-93
2022/04/13 07:51:31;;;;;;;2.43;1.10;;;;;;;19.39;31.90;99485.50;4939601;29;20189;-95
2022/04/13 07:53:57;;;;;;;4.00;1.50;;;;;;;19.43;31.76;99483.44;4940492;29;20192;-95
2022/04/13 07:56:22;;;;;;;2.43;1.07;;;;;;;19.53;31.53;99490.53;4939525;29;20190;-94
2022/04/13 07:58:48;;;;;;;2.40;1.23;;;;;;;19.77;32.80;99492.94;4941303;29;20269;-95
2022/04/13 08:01:14;;;;;;;1.90;1.00;;;;;;;19.67;31.48;99488.53;4938920;29;20303;-93
2022/04/13 08:03:40;;;;;;;6.33;1.77;;;;;;;19.76;30.96;99485.09;4938951;29;20275;-91
2022/04/13 08:06:06;;;;;;;4.30;1.67;;;;;;;19.81;31.80;99489.03;4938902;29;20618;-93
2022/04/13 08:08:32;;;;;;;5.20;1.63;;;;;;;19.98;31.79;99476.97;4940195;29;20555;-94
2022/04/13 08:10:58;;;;;;;3.23;1.80;;;;;;;19.99;31.69;99482.19;4939154;29;20199;-94
2022/04/13 08:13:23;;;;;;;2.43;1.10;;;;;;;20.09;30.98;99477.75;4939026;29;20177;-93
2022/04/13 08:15:49;;;;;;;3.97;1.57;;;;;;;20.16;30.38;99478.03;4939413;29;20267;-94
2022/04/13 08:18:14;;;;;;;4.87;1.37;;;;;;;20.32;31.04;99481.09;4938427;29;20181;-94
2022/04/13 08:20:40;;;;;;;2.70;1.30;;;;;;;19.88;30.81;99482.25;4938924;29;20263;-94
2022/04/13 08:23:05;;;;;;;3.13;1.30;;;;;;;19.93;30.60;99488.00;4938716;29;20648;-92
2022/04/13 08:25:31;;;;;;;2.00;1.20;;;;;;;20.18;31.08;99479.59;4938613;29;20251;-94
2022/04/13 08:27:59;;;;;;;4.17;1.50;;;;;;;20.39;31.91;99478.75;4938853;29;20189;-95
2022/04/13 08:30:55;;;;;;;;;;;;;;;;;;;;;
2022/04/13 08:33:30;;;;;;;2.77;1.60;;;;;;;20.20;31.92;99480.28;4957726;29;20185;-96
2022/04/13 08:35:57;;;;;;;5.40;1.50;;;;;;;19.98;31.01;99477.81;4939375;29;20279;-94
2022/04/13 08:38:37;;;;;;;3.53;1.30;;;;;;;20.02;31.87;99471.25;4940930;29;20213;-95
2022/04/13 08:41:16;;;;;;;2.83;1.20;;;;;;;20.30;30.79;99463.56;4938431;29;20661;-94
2022/04/13 08:43:48;;;;;;;2.77;1.73;;;;;;;19.88;32.71;99468.09;4955617;29;20227;-93
2022/04/13 08:46:27;;;;;;;4.60;1.70;;;;;;;20.09;31.88;99466.25;4938279;29;20192;-95
2022/04/13 08:49:01;;;;;;;2.13;1.23;;;;;;;20.03;31.56;99458.78;4938300;28;20633;-95
2022/04/13 08:51:26;;;;;;;2.30;1.07;;;;;;;20.16;31.49;99457.59;4941503;29;20180;-93
2022/04/13 08:54:16;;;;;;;2.13;0.90;;;;;;;20.55;32.22;99450.63;4941615;29;20544;-93
2022/04/13 08:56:44;;;;;;;5.73;1.43;;;;;;;20.33;30.30;99444.69;4942359;29;20181;-93
2022/04/13 08:59:22;;;;;;;2.60;1.23;;;;;;;20.28;31.62;99445.09;4941809;29;20633;-94
2022/04/13 09:01:59;;;;;;;3.17;1.30;;;;;;;20.32;31.91;99443.81;4941959;29;20230;-93
2022/04/13 09:04:28;;;;;;;2.80;1.33;;;;;;;20.29;31.61;99440.56;4941615;29;20224;-93
2022/04/13 09:07:13;;;;;;;5.73;1.73;;;;;;;20.49;31.74;99443.16;4941760;29;20193;-95
2022/04/13 09:09:49;;;;;;;2.13;0.97;;;;;;;20.92;30.97;99436.69;4941693;29;20260;-92
2022/04/13 09:12:18;;;;;;;4.70;1.10;;;;;;;20.80;30.79;99427.97;4941654;29;20187;-92
2022/04/13 09:14:45;;;;;;;4.00;1.27;;;;;;;20.88;31.02;99420.16;4941760;29;20287;-92
2022/04/13 09:17:11;;;;;;;2.87;1.40;;;;;;;21.02;30.95;99422.38;4941160;29;20248;-92
2022/04/13 09:19:37;;;;;;;4.70;1.43;;;;;;;20.84;31.73;99424.03;4941558;29;20196;-92
2022/04/13 09:22:04;;;;;;;2.60;1.10;;;;;;;21.06;31.68;99421.16;4941368;29;20177;-92
2022/04/13 09:24:32;;;;;;;2.57;1.23;;;;;;;21.31;31.44;99417.94;4941417;29;20680;-93
2022/04/13 09:26:59;;;;;;;3.07;1.33;;;;;;;21.41;30.65;99405.41;4940960;29;20181;-92
2022/04/13 09:29:25;;;;;;;2.53;1.23;;;;;;;21.47;30.21;99397.84;4940839;29;20181;-91
2022/04/13 09:31:51;;;;;;;9.67;1.47;;;;;;;21.53;30.71;99398.13;4940394;29;20680;-90
2022/04/13 09:34:17;;;;;;;3.70;1.47;;;;;;;21.71;32.34;99396.38;4957311;29;20260;-91
2022/04/13 09:36:44;;;;;;;7.07;2.10;;;;;;;21.77;28.94;99405.66;4957344;29;20205;-93
2022/04/13 09:39:10;;;;;;;3.83;1.23;;;;;;;22.00;30.20;99401.66;4957535;29;20177;-92
2022/04/13 09:42:08;;;;;;;2.93;1.10;;;;;;;22.47;29.82;99389.91;4942896;29;20201;-95
2022/04/13 09:44:40;;;;;;;2.83;1.10;;;;;;;22.62;29.09;99396.47;4936753;29;20228;-91
2022/04/13 09:47:16;;;;;;;4.97;1.30;;;;;;;21.91;28.83;99392.69;4940739;29;20535;-95
2022/04/13 09:49:53;;;;;;;2.87;1.10;;;;;;;21.88;29.64;99397.50;4940634;29;20177;-93
2022/04/13 09:55:33;;;;;;;2.43;1.27;;;;;;;21.98;28.94;99382.28;4947100;29;20205;-93
2022/04/13 09:58:42;;;;;;;2.30;1.00;;;;;;;22.10;28.85;99380.25;4940986;29;20177;-94
2022/04/13 10:01:08;;;;;;;2.83;1.43;;;;;;;21.98;29.03;99387.63;4883206;29;20628;-95
2022/04/13 10:04:22;;;;;;;2.90;1.00;;;;;;;22.10;28.75;99381.09;4914107;29;20279;-94
2022/04/13 10:06:48;;;;;;;1.90;1.00;;;;;;;21.78;28.66;99380.63;4941390;29;20268;-93
2022/04/13 10:09:14;;;;;;;4.33;1.50;;;;;;;21.84;29.33;99385.38;4940184;29;20203;-93
2022/04/13 10:12:01;;;;;;;2.33;1.13;;;;;;;22.17;28.81;99376.03;4940193;29;20551;-94
2022/04/13 10:14:49;;;;;;;2.93;1.23;;;;;;;22.41;29.52;99366.47;4940040;29;20191;-93
2022/04/13 10:18:05;;;;;;;4.07;1.57;;;;;;;22.47;28.25;99371.22;4940305;29;20173;-92
2022/04/13 10:20:44;;;;;;;2.27;1.27;;;;;;;22.31;28.44;99362.16;4941609;29;20181;-94
2022/04/13 10:26:40;;;;;;;2.50;1.00;;;;;;;22.16;28.42;99359.16;4953407;29;20210;-93
2022/04/13 10:29:16;;;;;;;3.47;1.43;;;;;;;22.39;28.34;99357.75;4939833;29;20177;-92
2022/04/13 10:32:36;;;;;;;3.27;1.23;;;;;;;22.52;28.22;99363.59;4939861;29;20204;-94
2022/04/13 10:36:01;;;;;;;;;;;;;;;;;;;;;
2022/04/13 10:43:03;;;;;;;5.07;1.20;;;;;;;23.13;26.07;99344.16;4848725;29;20219;-95
2022/04/13 10:49:34;;;;;;;;;;;;;;;;;;;;;
2022/04/13 10:56:55;;;;;;;;;;;;;;;;;;;;;
2022/04/13 10:58:58;;;;;;;3.17;1.57;;;;;;;22.71;25.08;99335.94;4874535;29;20660;-93
2022/04/13 11:01:42;;;;;;;2.87;1.23;;;;;;;22.51;26.35;99337.03;4880059;29;20529;-94
2022/04/13 11:04:31;;;;;;;;;;;;;;;;;;;;;
2022/04/13 11:08:00;;;;;;;;;;;;;;;;;;;;;
2022/04/13 11:14:38;;;;;;;2.77;1.10;;;;;;;23.54;24.02;99316.72;4872546;29;20278;-95
2022/04/13 11:17:13;;;;;;;1.93;0.90;;;;;;;23.70;25.88;99321.31;4939351;29;20181;-93
2022/04/13 11:24:19;;;;;;;;;;;;;;;;;;;;;
2022/04/13 11:26:49;;;;;;;4.13;0.90;;;;;;;23.59;24.29;99309.06;4930108;29;20205;-94
2022/04/13 11:29:21;;;;;;;2.73;0.80;;;;;;;23.71;25.23;99318.50;4938848;29;20195;-93
2022/04/13 11:32:01;;;;;;;1.80;0.90;;;;;;;24.17;23.63;99305.66;4938605;29;20279;-92
2022/04/13 11:34:41;;;;;;;1.20;0.70;;;;;;;24.15;22.85;99305.84;4938769;29;20185;-93
2022/04/13 11:37:11;;;;;;;2.53;1.10;;;;;;;23.96;22.87;99300.69;4939968;29;20486;-92
2022/04/13 11:40:13;;;;;;;1.87;1.17;;;;;;;23.71;24.18;99302.44;4939419;29;20613;-93
2022/04/13 11:42:46;;;;;;;2.20;0.93;;;;;;;23.69;24.15;99303.56;4920589;29;20190;-94
2022/04/13 11:45:19;;;;;;;2.67;0.90;;;;;;;23.85;24.33;99296.47;4920406;29;20209;-94
2022/04/13 11:47:50;;;;;;;1.93;0.80;;;;;;;23.39;23.78;99294.22;4936207;29;20173;-93
2022/04/13 11:50:19;;;;;;;1.80;0.87;;;;;;;23.66;25.54;99285.19;4919588;29;20196;-93
2022/04/13 11:53:13;;;;;;;;;;;;;;;;;;;;;
2022/04/13 11:56:13;;;;;;;2.80;1.40;;;;;;;23.86;23.81;99281.25;4936865;29;20236;-93
2022/04/13 11:59:15;;;;;;;3.17;0.80;;;;;;;23.45;24.22;99274.03;4920095;29;20177;-93
2022/04/13 12:02:05;;;;;;;1.70;1.03;;;;;;;23.34;23.83;99276.94;4916600;29;20281;-94
2022/04/13 12:04:31;;;;;;;2.53;0.80;;;;;;;23.61;24.35;99264.22;4919366;29;20216;-92
2022/04/13 12:06:56;;;;;;;1.73;0.80;;;;;;;23.90;23.51;99263.03;4920045;29;20561;-93
2022/04/13 12:09:25;;;;;;;2.10;1.07;;;;;;;23.68;23.46;99265.28;4919962;29;20260;-95
2022/04/13 12:12:04;;;;;;;8.50;1.13;;;;;;;23.76;23.51;99257.28;4920395;29;20181;-93
2022/04/13 12:14:38;;;;;;;1.90;0.93;;;;;;;23.67;23.00;99268.09;4919493;29;20608;-94
2022/04/13 12:17:38;;;;;;;1.87;0.83;;;;;;;23.25;23.15;99254.63;4919742;29;20261;-94
2022/04/13 12:20:07;;;;;;;2.47;0.80;;;;;;;23.48;23.75;99263.00;4916696;29;20190;-94
2022/04/13 12:22:36;;;;;;;2.10;0.77;;;;;;;23.74;23.87;99251.25;4919478;29;20190;-94